createdAt,value
2022-10-23T00:01:28.326Z,12.68
2022-10-23T00:03:59.082Z,14.38
2022-10-23T00:06:28.041Z,14.85
2022-10-23T00:08:57.872Z,12.65
2022-10-23T00:11:28.494Z,11.40
2022-10-23T00:13:59.005Z,10.02
2022-10-23T00:16:27.818Z,11.23
2022-10-23T00:18:56.233Z,12.70
2022-10-23T00:21:25.575Z,12.77
2022-10-23T00:23:54.489Z,11.60
2022-10-23T00:26:24.502Z,12.07
2022-10-23T00:28:55.266Z,11.68
2022-10-23T00:31:25.345Z,12.43
2022-10-23T00:33:54.549Z,12.82
2022-10-23T00:36:23.423Z,13.73
2022-10-23T00:38:52.528Z,10.18
2022-10-23T00:41:23.526Z,11.90
2022-10-23T00:44:06.936Z,11.95
2022-10-23T00:46:36.294Z,11.30
2022-10-23T00:49:06.019Z,15.75
2022-10-23T00:51:39.751Z,12.60
2022-10-23T00:54:25.284Z,10.35
2022-10-23T00:56:58.278Z,11.65
2022-10-23T00:59:29.181Z,14.48
2022-10-23T01:01:58.100Z,12.45
2022-10-23T01:04:29.296Z,12.30
2022-10-23T01:07:04.933Z,11.68
2022-10-23T01:09:38.477Z,13.43
2022-10-23T01:12:12.321Z,11.95
2022-10-23T01:14:51.677Z,12.27
2022-10-23T01:20:03.176Z,10.63
2022-10-23T01:22:45.656Z,10.55
2022-10-23T01:25:25.299Z,12.13
2022-10-23T01:28:02.844Z,9.25
2022-10-23T01:30:34.858Z,11.40
2022-10-23T01:33:08.223Z,11.73
2022-10-23T01:35:49.142Z,14.00
2022-10-23T01:38:22.963Z,11.50
2022-10-23T01:40:58.648Z,11.73
2022-10-23T01:43:33.899Z,10.35
2022-10-23T01:46:07.944Z,11.93
2022-10-23T01:48:39.415Z,10.13
2022-10-23T01:51:12.417Z,11.20
2022-10-23T01:53:44.324Z,11.52
2022-10-23T01:56:18.561Z,10.80
2022-10-23T01:58:51.514Z,12.60
2022-10-23T02:01:26.062Z,16.23
2022-10-23T02:03:55.738Z,12.20
2022-10-23T02:06:24.744Z,10.63
2022-10-23T02:08:53.197Z,19.08
2022-10-23T02:11:22.910Z,8.45
2022-10-23T02:13:58.123Z,13.93
2022-10-23T02:16:33.891Z,14.13
2022-10-23T02:19:12.101Z,12.73
2022-10-23T02:21:49.638Z,11.48
2022-10-23T02:24:22.056Z,16.65
2022-10-23T02:26:54.086Z,13.77
2022-10-23T02:29:32.221Z,14.93
2022-10-23T02:32:02.239Z,12.63
2022-10-23T02:34:30.800Z,12.85
2022-10-23T02:36:59.699Z,13.18
2022-10-23T02:39:29.380Z,12.43
2022-10-23T02:42:08.014Z,12.52
2022-10-23T02:44:54.062Z,12.00
2022-10-23T02:47:36.845Z,13.05
2022-10-23T02:50:14.278Z,11.20
2022-10-23T02:52:57.576Z,14.68
2022-10-23T02:58:09.408Z,15.38
2022-10-23T03:00:54.782Z,20.17
2022-10-23T03:03:28.475Z,15.07
2022-10-23T03:05:57.142Z,14.60
2022-10-23T03:08:26.662Z,18.08
2022-10-23T03:10:55.274Z,15.65
2022-10-23T03:13:25.196Z,15.52
2022-10-23T03:15:55.584Z,18.08
2022-10-23T03:18:23.854Z,17.05
2022-10-23T03:20:53.665Z,15.75
2022-10-23T03:23:23.890Z,13.48
2022-10-23T03:25:56.153Z,14.70
2022-10-23T03:28:44.784Z,28.45
2022-10-23T03:31:14.540Z,16.90
2022-10-23T03:33:43.947Z,16.15
2022-10-23T03:36:13.883Z,17.17
2022-10-23T03:38:42.273Z,14.98
2022-10-23T03:41:12.219Z,17.92
2022-10-23T03:43:40.655Z,14.77
2022-10-23T03:46:12.605Z,12.63
2022-10-23T03:48:42.411Z,16.17
2022-10-23T03:51:11.301Z,14.95
2022-10-23T03:53:42.293Z,15.73
2022-10-23T03:56:10.714Z,14.88
2022-10-23T03:58:39.681Z,35.60
2022-10-23T04:01:08.949Z,17.48
2022-10-23T04:03:38.303Z,15.18
2022-10-23T04:06:08.948Z,14.38
2022-10-23T04:08:37.521Z,20.55
2022-10-23T04:11:12.152Z,16.85
2022-10-23T04:13:47.072Z,18.98
2022-10-23T04:16:15.518Z,15.25
2022-10-23T04:18:46.893Z,26.38
2022-10-23T04:21:16.664Z,15.25
2022-10-23T04:23:45.324Z,15.38
2022-10-23T04:26:16.356Z,16.15
2022-10-23T04:28:44.705Z,14.60
2022-10-23T04:31:13.088Z,15.60
2022-10-23T04:33:43.266Z,15.75
2022-10-23T04:36:27.897Z,14.60
2022-10-23T04:38:56.229Z,16.20
2022-10-23T04:41:24.885Z,17.02
2022-10-23T04:43:53.280Z,17.13
2022-10-23T04:46:21.719Z,19.33
2022-10-23T04:48:50.928Z,15.88
2022-10-23T04:51:32.417Z,16.17
2022-10-23T04:54:10.766Z,18.63
2022-10-23T04:56:58.522Z,16.20
2022-10-23T04:59:29.210Z,15.38
2022-10-23T05:02:01.762Z,16.55
2022-10-23T05:04:30.619Z,15.98
2022-10-23T05:07:35.353Z,17.38
2022-10-23T05:10:26.820Z,16.70
2022-10-23T05:13:07.242Z,19.50
2022-10-23T05:15:35.820Z,17.88
2022-10-23T05:18:14.938Z,18.92
2022-10-23T05:20:49.082Z,15.90
2022-10-23T05:23:20.581Z,24.15
2022-10-23T05:25:59.093Z,20.38
2022-10-23T05:28:28.325Z,15.57
2022-10-23T05:30:58.939Z,20.33
2022-10-23T05:33:31.172Z,21.45
2022-10-23T05:36:01.219Z,19.60
2022-10-23T05:38:34.991Z,19.42
2022-10-23T05:41:11.196Z,19.83
2022-10-23T05:43:39.970Z,18.63
2022-10-23T05:46:31.088Z,17.80
2022-10-23T05:49:31.736Z,21.42
2022-10-23T05:52:20.002Z,23.27
2022-10-23T05:54:53.934Z,17.55
2022-10-23T05:57:42.494Z,20.23
2022-10-23T06:00:14.492Z,17.92
2022-10-23T06:02:43.623Z,20.77
2022-10-23T06:05:33.982Z,19.52
2022-10-23T06:08:22.748Z,22.83
2022-10-23T06:10:53.553Z,24.83
2022-10-23T06:13:21.984Z,21.55
2022-10-23T06:15:50.589Z,24.02
2022-10-23T06:18:24.217Z,22.50
2022-10-23T06:21:01.755Z,22.45
2022-10-23T06:23:33.577Z,18.48
2022-10-23T06:26:03.417Z,20.58
2022-10-23T06:28:52.248Z,19.67
2022-10-23T06:31:23.677Z,19.83
2022-10-23T06:33:53.217Z,20.02
2022-10-23T06:36:22.888Z,20.20
2022-10-23T06:38:52.817Z,19.13
2022-10-23T06:41:25.005Z,20.02
2022-10-23T06:43:58.785Z,20.88
2022-10-23T06:46:39.888Z,20.48
2022-10-23T06:49:30.452Z,19.42
2022-10-23T06:52:00.676Z,21.98
2022-10-23T06:54:29.727Z,20.02
2022-10-23T06:56:59.927Z,24.17
2022-10-23T06:59:42.910Z,21.80
2022-10-23T07:02:12.367Z,19.30
2022-10-23T07:04:41.356Z,21.05
2022-10-23T07:07:16.163Z,26.35
2022-10-23T07:09:49.863Z,20.23
2022-10-23T07:12:19.585Z,20.13
2022-10-23T07:14:53.630Z,23.55
2022-10-23T07:17:23.252Z,24.55
2022-10-23T07:19:51.920Z,21.83
2022-10-23T07:22:21.149Z,24.90
2022-10-23T07:25:03.489Z,22.92
2022-10-23T07:27:39.884Z,20.85
2022-10-23T07:30:11.777Z,23.63
2022-10-23T07:32:46.785Z,22.42
2022-10-23T07:35:37.002Z,22.75
2022-10-23T07:38:14.224Z,19.75
2022-10-23T07:40:51.312Z,28.98
2022-10-23T07:43:21.979Z,24.15
2022-10-23T07:45:51.332Z,22.13
2022-10-23T07:48:27.884Z,22.27
2022-10-23T07:51:08.445Z,22.73
2022-10-23T07:53:41.756Z,22.23
2022-10-23T07:56:22.828Z,23.50
2022-10-23T07:59:13.477Z,24.83
2022-10-23T08:04:12.276Z,22.67
2022-10-23T08:06:49.909Z,27.75
2022-10-23T08:09:19.433Z,26.10
2022-10-23T08:11:49.172Z,27.38
2022-10-23T08:14:21.979Z,25.55
2022-10-23T08:16:51.192Z,27.35
2022-10-23T08:19:20.193Z,26.95
2022-10-23T08:21:54.902Z,26.92
2022-10-23T08:24:23.569Z,34.97
2022-10-23T08:26:52.420Z,28.98
2022-10-23T08:29:26.251Z,27.67
2022-10-23T08:31:57.632Z,28.98
2022-10-23T08:34:31.413Z,26.73
2022-10-23T08:37:02.259Z,33.03
2022-10-23T08:39:30.823Z,31.13
2022-10-23T08:42:22.451Z,28.23
2022-10-23T08:45:01.350Z,30.63
2022-10-23T08:47:38.572Z,31.60
2022-10-23T08:50:35.707Z,37.05
2022-10-23T08:53:11.589Z,39.10
2022-10-23T08:55:43.925Z,30.02
2022-10-23T08:58:19.375Z,34.25
2022-10-23T09:00:51.282Z,33.67
2022-10-23T09:03:19.943Z,31.80
2022-10-23T09:06:03.574Z,29.50
2022-10-23T09:08:48.769Z,31.67
2022-10-23T09:11:25.652Z,33.88
2022-10-23T09:14:18.022Z,30.52
2022-10-23T09:17:01.744Z,31.98
2022-10-23T09:19:32.265Z,39.15
2022-10-23T09:22:01.241Z,36.22
2022-10-23T09:24:31.841Z,35.65
2022-10-23T09:27:00.917Z,34.10
2022-10-23T09:29:31.980Z,30.67
2022-10-23T09:32:04.579Z,29.67
2022-10-23T09:34:34.612Z,29.05
2022-10-23T09:37:05.763Z,36.08
2022-10-23T09:39:36.782Z,32.13
2022-10-23T09:42:23.085Z,33.67
2022-10-23T09:44:54.161Z,36.15
2022-10-23T09:47:26.559Z,37.33
2022-10-23T09:49:57.406Z,41.13
2022-10-23T09:52:30.961Z,39.08
2022-10-23T09:55:01.581Z,41.72
2022-10-23T09:57:37.176Z,36.42
2022-10-23T10:00:17.908Z,37.80
2022-10-23T10:02:57.354Z,36.72
2022-10-23T10:05:56.575Z,36.30
2022-10-23T10:08:32.769Z,41.20
2022-10-23T10:11:03.775Z,43.72
2022-10-23T10:13:51.328Z,33.58
2022-10-23T10:16:33.805Z,36.10
2022-10-23T10:19:13.015Z,38.30
2022-10-23T10:21:48.954Z,33.08
2022-10-23T10:24:22.511Z,37.28
2022-10-23T10:27:00.129Z,37.80
2022-10-23T10:29:45.935Z,35.28
2022-10-23T10:32:32.297Z,39.10
2022-10-23T10:37:49.695Z,39.03
2022-10-23T10:40:27.589Z,37.83
2022-10-23T10:43:12.323Z,37.78
2022-10-23T10:45:47.606Z,35.60
2022-10-23T10:48:43.423Z,39.63
2022-10-23T10:51:51.632Z,39.13
2022-10-23T10:54:34.681Z,37.00
2022-10-23T10:57:12.293Z,36.35
2022-10-23T10:59:46.070Z,41.15
2022-10-23T11:02:27.057Z,36.50
2022-10-23T11:05:06.591Z,38.05
2022-10-23T11:07:42.676Z,40.22
2022-10-23T11:10:18.353Z,41.83
2022-10-23T11:12:48.463Z,36.50
2022-10-23T11:15:19.352Z,37.40
2022-10-23T11:17:51.837Z,38.70
2022-10-23T11:20:39.019Z,46.53
2022-10-23T11:23:30.735Z,45.22
2022-10-23T11:26:07.948Z,38.78
2022-10-23T11:28:53.595Z,39.10
2022-10-23T11:31:35.021Z,37.40
2022-10-23T11:34:34.329Z,39.75
2022-10-23T11:37:04.824Z,42.15
2022-10-23T11:39:36.724Z,43.13
2022-10-23T11:42:17.062Z,39.80
2022-10-23T11:44:46.838Z,41.88
2022-10-23T11:47:42.053Z,38.67
2022-10-23T11:50:30.929Z,43.00
2022-10-23T11:53:21.203Z,42.22
2022-10-23T11:56:04.363Z,40.63
2022-10-23T11:58:46.913Z,41.65
2022-10-23T12:01:27.655Z,39.83
2022-10-23T12:03:59.198Z,44.08
2022-10-23T12:06:32.209Z,40.50
2022-10-23T12:09:06.227Z,46.05
2022-10-23T12:11:49.988Z,40.30
2022-10-23T12:14:30.116Z,45.35
2022-10-23T12:16:58.709Z,44.83
2022-10-23T12:19:29.569Z,44.00
2022-10-23T12:22:01.136Z,43.03
2022-10-23T12:24:47.589Z,42.97
2022-10-23T12:27:32.298Z,42.65
2022-10-23T12:30:18.685Z,43.17
2022-10-23T12:33:20.779Z,43.70
2022-10-23T12:36:22.702Z,46.65
2022-10-23T12:38:51.501Z,42.60
2022-10-23T12:41:25.583Z,42.25
2022-10-23T12:43:59.094Z,46.05
2022-10-23T12:46:36.257Z,44.20
2022-10-23T12:49:15.481Z,45.88
2022-10-23T12:51:44.768Z,41.17
2022-10-23T12:54:18.926Z,43.15
2022-10-23T12:56:49.190Z,46.55
2022-10-23T12:59:21.814Z,46.08
2022-10-23T13:01:52.994Z,44.58
2022-10-23T13:04:30.297Z,43.35
2022-10-23T13:07:02.248Z,44.42
2022-10-23T13:09:35.104Z,43.40
2022-10-23T13:12:32.730Z,44.15
2022-10-23T13:15:14.978Z,38.67
2022-10-23T13:17:45.817Z,44.80
2022-10-23T13:20:24.387Z,39.40
2022-10-23T13:23:00.475Z,40.83
2022-10-23T13:25:32.824Z,37.10
2022-10-23T13:28:23.825Z,40.10
2022-10-23T13:31:25.236Z,34.88
2022-10-23T13:34:07.043Z,39.13
2022-10-23T13:36:39.599Z,39.95
2022-10-23T13:39:15.641Z,37.70
2022-10-23T13:41:45.870Z,46.70
2022-10-23T13:44:15.951Z,39.83
2022-10-23T13:46:45.883Z,42.00
2022-10-23T13:49:14.180Z,43.42
2022-10-23T13:51:47.602Z,44.20
2022-10-23T13:56:46.350Z,44.40
2022-10-23T13:59:15.740Z,42.88
2022-10-23T14:01:47.243Z,40.35
2022-10-23T14:04:17.627Z,42.28
2022-10-23T14:06:46.198Z,41.00
2022-10-23T14:09:16.759Z,39.85
2022-10-23T14:11:45.322Z,42.30
2022-10-23T14:14:14.256Z,41.75
2022-10-23T14:16:43.415Z,45.30
2022-10-23T14:19:13.748Z,39.83
2022-10-23T14:21:42.136Z,43.92
2022-10-23T14:24:10.514Z,39.03
2022-10-23T14:26:38.908Z,37.78
2022-10-23T14:29:09.896Z,42.50
2022-10-23T14:31:42.353Z,38.67
2022-10-23T14:34:10.850Z,38.67
2022-10-23T14:36:49.925Z,39.25
2022-10-23T14:39:19.559Z,36.80
2022-10-23T14:41:47.936Z,33.50
2022-10-23T14:44:16.686Z,35.28
2022-10-23T14:46:47.513Z,33.53
2022-10-23T14:49:17.320Z,36.78
2022-10-23T14:51:48.227Z,32.92
2022-10-23T14:54:17.531Z,30.13
2022-10-23T14:56:46.232Z,35.63
2022-10-23T14:59:15.284Z,31.83
2022-10-23T15:01:48.027Z,30.65
2022-10-23T15:04:17.277Z,32.38
2022-10-23T15:06:47.531Z,30.60
2022-10-23T15:09:18.653Z,31.60
2022-10-23T15:11:47.111Z,35.90
2022-10-23T15:14:15.661Z,35.42
2022-10-23T15:16:44.066Z,35.63
2022-10-23T15:19:17.387Z,31.30
2022-10-23T15:21:49.579Z,30.20
2022-10-23T15:24:18.956Z,29.90
2022-10-23T15:26:47.570Z,27.52
2022-10-23T15:29:16.627Z,28.10
2022-10-23T15:31:49.256Z,28.02
2022-10-23T15:34:20.081Z,31.73
2022-10-23T15:36:50.731Z,28.65
2022-10-23T15:39:21.773Z,31.48
2022-10-23T15:41:52.610Z,27.80
2022-10-23T15:44:23.607Z,32.80
2022-10-23T15:46:52.546Z,38.70
2022-10-23T15:49:21.690Z,26.75
2022-10-23T15:51:51.862Z,23.70
2022-10-23T15:54:22.169Z,25.05
2022-10-23T15:56:52.881Z,23.73
2022-10-23T15:59:23.131Z,24.85
2022-10-23T16:01:51.820Z,24.48
2022-10-23T16:04:20.711Z,21.70
2022-10-23T16:06:51.345Z,26.13
2022-10-23T16:09:21.314Z,24.42
2022-10-23T16:11:49.838Z,21.33
2022-10-23T16:14:18.404Z,22.25
2022-10-23T16:16:46.852Z,24.67
2022-10-23T16:19:15.118Z,24.38
2022-10-23T16:21:43.909Z,22.45
2022-10-23T16:24:13.717Z,20.90
2022-10-23T16:26:42.158Z,24.17
2022-10-23T16:29:10.928Z,22.42
2022-10-23T16:31:39.235Z,24.10
2022-10-23T16:34:08.226Z,21.65
2022-10-23T16:36:39.190Z,24.15
2022-10-23T16:39:28.599Z,22.13
2022-10-23T16:42:15.224Z,24.63
2022-10-23T16:45:12.927Z,24.08
2022-10-23T16:47:41.315Z,26.35
2022-10-23T16:50:10.122Z,21.02
2022-10-23T16:52:38.559Z,23.55
2022-10-23T16:55:09.419Z,20.98
2022-10-23T16:57:38.095Z,20.95
2022-10-23T17:00:08.091Z,22.25
2022-10-23T17:02:36.647Z,19.55
2022-10-23T17:05:06.159Z,18.55
2022-10-23T17:07:34.624Z,20.75
2022-10-23T17:10:03.147Z,21.58
2022-10-23T17:12:33.079Z,20.88
2022-10-23T17:15:01.606Z,23.73
2022-10-23T17:17:31.927Z,18.08
2022-10-23T17:20:00.258Z,21.00
2022-10-23T17:22:28.659Z,23.65
2022-10-23T17:24:57.232Z,21.52
2022-10-23T17:27:25.577Z,21.75
2022-10-23T17:29:55.537Z,23.70
2022-10-23T17:32:24.147Z,19.38
2022-10-23T17:34:52.591Z,19.17
2022-10-23T17:37:21.487Z,19.90
2022-10-23T17:39:51.167Z,20.33
2022-10-23T17:42:19.520Z,19.77
2022-10-23T17:44:47.929Z,21.05
2022-10-23T17:47:17.751Z,19.55
2022-10-23T17:49:46.940Z,19.15
2022-10-23T17:52:15.295Z,18.40
2022-10-23T17:54:43.886Z,17.98
2022-10-23T17:57:12.586Z,22.92
2022-10-23T17:59:41.215Z,17.20
2022-10-23T18:02:13.185Z,17.05
2022-10-23T18:04:45.427Z,18.35
2022-10-23T18:07:14.684Z,17.55
2022-10-23T18:09:43.089Z,19.65
2022-10-23T18:12:11.394Z,15.30
2022-10-23T18:14:39.758Z,15.65
2022-10-23T18:17:08.094Z,17.80
2022-10-23T18:19:36.605Z,19.23
2022-10-23T18:22:07.863Z,18.83
2022-10-23T18:24:38.343Z,15.00
2022-10-23T18:27:07.141Z,15.57
2022-10-23T18:29:35.933Z,16.98
2022-10-23T18:32:05.326Z,16.45
2022-10-23T18:34:33.629Z,15.55
2022-10-23T18:37:02.099Z,14.65
2022-10-23T18:39:32.739Z,16.67
2022-10-23T18:42:02.949Z,14.55
2022-10-23T18:44:31.547Z,15.07
2022-10-23T18:47:01.038Z,14.32
2022-10-23T18:49:29.941Z,15.82
2022-10-23T18:51:58.955Z,13.68
2022-10-23T18:54:28.781Z,13.48
2022-10-23T18:56:58.647Z,14.00
2022-10-23T18:59:27.255Z,14.95
2022-10-23T19:01:55.926Z,13.00
2022-10-23T19:04:25.629Z,14.35
2022-10-23T19:06:54.130Z,13.13
2022-10-23T19:09:22.439Z,16.55
2022-10-23T19:11:50.824Z,13.05
2022-10-23T19:14:21.395Z,15.15
2022-10-23T19:16:59.762Z,12.38
2022-10-23T19:19:32.391Z,14.00
2022-10-23T19:22:01.978Z,14.65
2022-10-23T19:24:38.271Z,13.23
2022-10-23T19:27:07.037Z,11.90
2022-10-23T19:29:41.599Z,11.35
2022-10-23T19:32:10.643Z,14.23
2022-10-23T19:34:39.156Z,13.70
2022-10-23T19:37:08.515Z,11.23
2022-10-23T19:39:37.179Z,13.65
2022-10-23T19:42:05.993Z,12.43
2022-10-23T19:44:34.322Z,11.55
2022-10-23T19:47:04.375Z,10.95
2022-10-23T19:49:32.794Z,11.05
2022-10-23T19:52:01.087Z,11.80
2022-10-23T19:54:30.672Z,10.35
2022-10-23T19:56:59.010Z,10.40
2022-10-23T19:59:27.450Z,9.50
2022-10-23T20:01:55.888Z,9.45
2022-10-23T20:04:25.827Z,10.10
2022-10-23T20:06:54.969Z,8.27
2022-10-23T20:09:23.427Z,10.23
2022-10-23T20:11:51.826Z,9.75
2022-10-23T20:14:20.919Z,11.15
2022-10-23T20:16:53.546Z,10.63
2022-10-23T20:19:26.216Z,9.05
2022-10-23T20:21:54.745Z,10.88
2022-10-23T20:24:23.241Z,10.40
2022-10-23T20:26:54.780Z,8.82
2022-10-23T20:29:25.935Z,10.07
2022-10-23T20:31:54.505Z,9.27
2022-10-23T20:34:22.839Z,9.18
2022-10-23T20:36:52.613Z,8.52
2022-10-23T20:39:25.502Z,9.30
2022-10-23T20:41:55.372Z,7.78
2022-10-23T20:44:25.358Z,7.55
2022-10-23T20:46:54.032Z,8.45
2022-10-23T20:49:22.781Z,9.02
2022-10-23T20:51:55.629Z,8.13
2022-10-23T20:54:25.021Z,9.07
2022-10-23T20:56:53.472Z,9.55
2022-10-23T20:59:22.146Z,8.50
2022-10-23T21:01:53.253Z,8.18
2022-10-23T21:04:24.337Z,9.15
2022-10-23T21:07:09.406Z,11.90
2022-10-23T21:09:38.985Z,9.88
2022-10-23T21:12:07.822Z,13.43
2022-10-23T21:14:37.120Z,12.23
2022-10-23T21:17:05.851Z,15.32
2022-10-23T21:19:34.179Z,10.77
2022-10-23T21:22:05.491Z,10.63
2022-10-23T21:24:33.826Z,12.48
2022-10-23T21:27:02.335Z,11.10
2022-10-23T21:29:30.737Z,13.40
2022-10-23T21:32:01.162Z,12.93
2022-10-23T21:34:30.526Z,15.23
2022-10-23T21:37:14.994Z,11.70
2022-10-23T21:39:45.570Z,13.75
2022-10-23T21:42:15.214Z,12.30
2022-10-23T21:44:43.687Z,14.15
2022-10-23T21:47:12.048Z,11.32
2022-10-23T21:49:40.460Z,12.90
2022-10-23T21:52:08.789Z,11.98
2022-10-23T21:54:37.203Z,13.48
2022-10-23T21:57:14.016Z,12.70
2022-10-23T21:59:42.417Z,12.05
2022-10-23T22:02:11.186Z,11.30
2022-10-23T22:04:40.480Z,12.65
2022-10-23T22:07:11.039Z,13.00
2022-10-23T22:09:39.687Z,11.75
2022-10-23T22:12:11.238Z,11.48
2022-10-23T22:14:41.155Z,12.05
2022-10-23T22:17:09.801Z,11.00
2022-10-23T22:19:38.451Z,13.25
2022-10-23T22:22:06.824Z,12.00
2022-10-23T22:24:35.129Z,11.70
2022-10-23T22:27:03.826Z,13.88
2022-10-23T22:29:33.642Z,14.52
2022-10-23T22:32:01.914Z,14.43
2022-10-23T22:34:51.919Z,15.65
2022-10-23T22:37:19.892Z,18.30
2022-10-23T22:39:51.962Z,14.02
2022-10-23T22:42:20.265Z,14.73
2022-10-23T22:44:49.909Z,14.80
2022-10-23T22:47:18.212Z,15.48
2022-10-23T22:49:46.584Z,18.75
2022-10-23T22:52:14.885Z,16.83
2022-10-23T22:54:43.153Z,17.85
2022-10-23T22:57:11.539Z,18.95
2022-10-23T22:59:39.960Z,16.48
2022-10-23T23:02:10.132Z,16.23
2022-10-23T23:04:39.174Z,15.23
2022-10-23T23:07:08.274Z,15.88
2022-10-23T23:09:38.117Z,12.73
2022-10-23T23:12:06.850Z,12.98
2022-10-23T23:14:35.347Z,15.15
2022-10-23T23:17:03.773Z,13.68
2022-10-23T23:19:33.563Z,14.23
2022-10-23T23:22:02.222Z,14.88
2022-10-23T23:24:30.649Z,15.07
2022-10-23T23:26:58.994Z,14.38
2022-10-23T23:29:28.452Z,13.55
2022-10-23T23:31:57.072Z,15.52
2022-10-23T23:34:25.365Z,14.65
2022-10-23T23:36:55.107Z,15.20
2022-10-23T23:39:23.873Z,11.40
2022-10-23T23:41:52.180Z,12.68
2022-10-23T23:44:20.510Z,13.38
2022-10-23T23:46:48.987Z,16.17
2022-10-23T23:49:17.206Z,12.40
2022-10-23T23:51:45.529Z,11.77
2022-10-23T23:54:15.587Z,10.50
2022-10-23T23:56:44.159Z,12.25
2022-10-23T23:59:12.431Z,10.20
